createdAt,value
2019-01-26T00:00:26.240Z,1013.64
2019-01-26T00:01:06.874Z,1013.65
2019-01-26T00:01:47.506Z,1013.66
2019-01-26T00:02:28.138Z,1013.67
2019-01-26T00:03:08.811Z,1013.68
2019-01-26T00:03:49.510Z,1013.6
2019-01-26T00:04:30.168Z,1013.64
2019-01-26T00:05:10.776Z,1013.59
2019-01-26T00:05:51.394Z,1013.59
2019-01-26T00:06:32.004Z,1013.58
2019-01-26T00:07:12.785Z,1013.62
2019-01-26T00:07:53.590Z,1013.57
2019-01-26T00:08:34.220Z,1013.59
2019-01-26T00:09:14.870Z,1013.6
2019-01-26T00:09:55.529Z,1013.57
2019-01-26T00:10:36.162Z,1013.54
2019-01-26T00:11:16.766Z,1013.55
2019-01-26T00:11:57.376Z,1013.5
2019-01-26T00:12:37.997Z,1013.52
2019-01-26T00:13:18.619Z,1013.51
2019-01-26T00:13:59.277Z,1013.5
2019-01-26T00:14:39.888Z,1013.47
2019-01-26T00:15:20.538Z,1013.47
2019-01-26T00:16:01.156Z,1013.46
2019-01-26T00:16:41.779Z,1013.45
2019-01-26T00:17:22.583Z,1013.45
2019-01-26T00:18:03.209Z,1013.5
2019-01-26T00:18:43.987Z,1013.49
2019-01-26T00:19:24.636Z,1013.5
2019-01-26T00:20:05.317Z,1013.49
2019-01-26T00:20:46.233Z,1013.47
2019-01-26T00:21:26.851Z,1013.49
2019-01-26T00:22:07.869Z,1013.49
2019-01-26T00:22:48.407Z,1013.44
2019-01-26T00:23:29.255Z,1013.42
2019-01-26T00:24:09.941Z,1013.41
2019-01-26T00:24:50.545Z,1013.48
2019-01-26T00:25:31.182Z,1013.46
2019-01-26T00:26:11.845Z,1013.45
2019-01-26T00:26:52.570Z,1013.46
2019-01-26T00:27:33.159Z,1013.49
2019-01-26T00:28:13.938Z,1013.5
2019-01-26T00:28:54.887Z,1013.51
2019-01-26T00:29:35.485Z,1013.53
2019-01-26T00:30:16.433Z,1013.51
2019-01-26T00:30:57.102Z,1013.53
2019-01-26T00:31:37.903Z,1013.56
2019-01-26T00:32:18.439Z,1013.61
2019-01-26T00:32:59.629Z,1013.6
2019-01-26T00:33:43.155Z,1013.62
2019-01-26T00:34:20.836Z,1013.6
2019-01-26T00:35:01.446Z,1013.6
2019-01-26T00:35:42.137Z,1013.63
2019-01-26T00:36:22.685Z,1013.66
2019-01-26T00:37:03.647Z,1013.66
2019-01-26T00:37:44.341Z,1013.66
2019-01-26T00:38:24.939Z,1013.66
2019-01-26T00:39:05.585Z,1013.65
2019-01-26T00:39:46.385Z,1013.61
2019-01-26T00:40:27.083Z,1013.61
2019-01-26T00:41:07.745Z,1013.57
2019-01-26T00:41:48.403Z,1013.59
2019-01-26T00:42:29.023Z,1013.59
2019-01-26T00:43:09.783Z,1013.56
2019-01-26T00:43:50.431Z,1013.58
2019-01-26T00:44:31.143Z,1013.56
2019-01-26T00:45:11.865Z,1013.6
2019-01-26T00:46:03.283Z,1013.63
2019-01-26T00:46:44.053Z,1013.62
2019-01-26T00:47:24.521Z,1013.61
2019-01-26T00:48:05.133Z,1013.59
2019-01-26T00:48:45.826Z,1013.6
2019-01-26T00:49:26.446Z,1013.61
2019-01-26T00:50:07.109Z,1013.65
2019-01-26T00:50:47.750Z,1013.62
2019-01-26T00:51:28.360Z,1013.6
2019-01-26T00:52:09.305Z,1013.62
2019-01-26T00:52:49.867Z,1013.68
2019-01-26T00:53:30.665Z,1013.67
2019-01-26T00:54:11.283Z,1013.69
2019-01-26T00:54:51.991Z,1013.7
2019-01-26T00:55:32.602Z,1013.66
2019-01-26T00:56:13.280Z,1013.67
2019-01-26T00:56:53.947Z,1013.67
2019-01-26T00:57:34.619Z,1013.64
2019-01-26T00:58:15.447Z,1013.6
2019-01-26T01:00:10.733Z,1013.52
2019-01-26T01:00:51.347Z,1013.59
2019-01-26T01:01:32.099Z,1013.55
2019-01-26T01:02:12.825Z,1013.56
2019-01-26T01:02:53.515Z,1013.59
2019-01-26T01:03:34.504Z,1013.59
2019-01-26T01:04:14.979Z,1013.57
2019-01-26T01:04:55.835Z,1013.58
2019-01-26T01:05:36.693Z,1013.6
2019-01-26T01:06:17.857Z,1013.6
2019-01-26T01:06:58.487Z,1013.57
2019-01-26T01:07:39.184Z,1013.57
2019-01-26T01:08:19.863Z,1013.57
2019-01-26T01:09:00.674Z,1013.52
2019-01-26T01:09:41.133Z,1013.48
2019-01-26T01:10:21.755Z,1013.52
2019-01-26T01:11:02.337Z,1013.46
2019-01-26T01:11:42.981Z,1013.49
2019-01-26T01:12:23.637Z,1013.44
2019-01-26T01:13:04.255Z,1013.43
2019-01-26T01:13:45.139Z,1013.41
2019-01-26T01:14:25.820Z,1013.37
2019-01-26T01:15:06.446Z,1013.37
2019-01-26T01:15:47.634Z,1013.36
2019-01-26T01:16:35.790Z,1013.33
2019-01-26T01:17:11.291Z,1013.34
2019-01-26T01:17:51.898Z,1013.3
2019-01-26T01:18:32.549Z,1013.32
2019-01-26T01:19:13.202Z,1013.3
2019-01-26T01:21:15.329Z,1013.27
2019-01-26T01:21:55.867Z,1013.32
2019-01-26T01:22:36.531Z,1013.32
2019-01-26T01:23:17.238Z,1013.35
2019-01-26T01:23:57.831Z,1013.36
2019-01-26T01:24:38.525Z,1013.32
2019-01-26T01:25:19.448Z,1013.34
2019-01-26T01:26:00.233Z,1013.37
2019-01-26T01:26:40.847Z,1013.38
2019-01-26T01:27:21.659Z,1013.39
2019-01-26T01:28:02.265Z,1013.36
2019-01-26T01:28:42.923Z,1013.4
2019-01-26T01:29:23.683Z,1013.41
2019-01-26T01:30:04.300Z,1013.41
2019-01-26T01:30:44.990Z,1013.44
2019-01-26T01:31:25.601Z,1013.41
2019-01-26T01:32:06.265Z,1013.42
2019-01-26T01:32:46.939Z,1013.39
2019-01-26T01:33:28.008Z,1013.43
2019-01-26T01:34:08.606Z,1013.43
2019-01-26T01:34:49.276Z,1013.44
2019-01-26T01:35:29.881Z,1013.4
2019-01-26T01:36:10.511Z,1013.42
2019-01-26T01:36:51.216Z,1013.47
2019-01-26T01:37:32.337Z,1013.46
2019-01-26T01:38:13.069Z,1013.5
2019-01-26T01:38:53.716Z,1013.52
2019-01-26T01:39:34.377Z,1013.55
2019-01-26T01:40:14.985Z,1013.55
2019-01-26T01:40:55.607Z,1013.57
2019-01-26T01:41:36.215Z,1013.6
2019-01-26T01:42:16.827Z,1013.61
2019-01-26T01:42:57.459Z,1013.58
2019-01-26T01:43:38.093Z,1013.59
2019-01-26T01:44:18.695Z,1013.59
2019-01-26T01:44:59.305Z,1013.58
2019-01-26T01:45:39.937Z,1013.61
2019-01-26T01:46:20.575Z,1013.57
2019-01-26T01:47:01.197Z,1013.58
2019-01-26T01:47:41.883Z,1013.58
2019-01-26T01:48:22.415Z,1013.51
2019-01-26T01:49:03.019Z,1013.55
2019-01-26T01:49:43.623Z,1013.57
2019-01-26T01:50:24.398Z,1013.54
2019-01-26T01:51:04.925Z,1013.51
2019-01-26T01:51:45.542Z,1013.49
2019-01-26T01:52:26.161Z,1013.45
2019-01-26T01:53:06.782Z,1013.51
2019-01-26T01:53:47.411Z,1013.49
2019-01-26T01:54:28.013Z,1013.47
2019-01-26T01:55:08.614Z,1013.53
2019-01-26T01:55:49.213Z,1013.41
2019-01-26T01:56:29.856Z,1013.47
2019-01-26T01:57:10.441Z,1013.46
2019-01-26T01:57:51.059Z,1013.5
2019-01-26T01:58:31.641Z,1013.48
2019-01-26T01:59:12.267Z,1013.47
2019-01-26T01:59:52.861Z,1013.52
2019-01-26T02:00:33.465Z,1013.5
2019-01-26T02:01:14.067Z,1013.5
2019-01-26T02:01:54.671Z,1013.49
2019-01-26T02:02:35.269Z,1013.47
2019-01-26T02:03:15.873Z,1013.51
2019-01-26T02:03:56.517Z,1013.52
2019-01-26T02:04:37.179Z,1013.5
2019-01-26T02:05:17.779Z,1013.57
2019-01-26T02:05:58.384Z,1013.58
2019-01-26T02:06:39.045Z,1013.58
2019-01-26T02:07:19.651Z,1013.56
2019-01-26T02:08:00.298Z,1013.6
2019-01-26T02:08:40.917Z,1013.58
2019-01-26T02:09:21.575Z,1013.6
2019-01-26T02:10:02.193Z,1013.62
2019-01-26T02:10:42.801Z,1013.6
2019-01-26T02:11:23.396Z,1013.64
2019-01-26T02:12:04.029Z,1013.64
2019-01-26T02:12:44.659Z,1013.63
2019-01-26T02:13:25.263Z,1013.63
2019-01-26T02:14:05.889Z,1013.63
2019-01-26T02:14:46.501Z,1013.67
2019-01-26T02:15:27.107Z,1013.67
2019-01-26T02:16:07.721Z,1013.65
2019-01-26T02:16:50.108Z,1013.65
2019-01-26T02:17:28.984Z,1013.65
2019-01-26T02:18:09.585Z,1013.63
2019-01-26T02:18:50.195Z,1013.59
2019-01-26T02:19:30.792Z,1013.59
2019-01-26T02:20:11.393Z,1013.58
2019-01-26T02:20:51.999Z,1013.62
2019-01-26T02:21:32.677Z,1013.58
2019-01-26T02:22:13.286Z,1013.6
2019-01-26T02:22:53.894Z,1013.59
2019-01-26T02:23:34.505Z,1013.58
2019-01-26T02:24:15.096Z,1013.6
2019-01-26T02:24:55.713Z,1013.59
2019-01-26T02:25:36.308Z,1013.66
2019-01-26T02:26:16.919Z,1013.68
2019-01-26T02:26:57.525Z,1013.64
2019-01-26T02:27:38.172Z,1013.64
2019-01-26T02:28:18.776Z,1013.69
2019-01-26T02:28:59.380Z,1013.67
2019-01-26T02:29:39.987Z,1013.69
2019-01-26T02:30:20.607Z,1013.67
2019-01-26T02:31:01.215Z,1013.64
2019-01-26T02:31:41.832Z,1013.67
2019-01-26T02:32:22.448Z,1013.62
2019-01-26T02:33:03.053Z,1013.66
2019-01-26T02:33:43.664Z,1013.67
2019-01-26T02:34:24.250Z,1013.71
2019-01-26T02:35:04.910Z,1013.68
2019-01-26T02:35:45.550Z,1013.7
2019-01-26T02:36:26.173Z,1013.67
2019-01-26T02:37:06.790Z,1013.66
2019-01-26T02:37:47.388Z,1013.71
2019-01-26T02:38:28.020Z,1013.69
2019-01-26T02:39:08.677Z,1013.69
2019-01-26T02:39:49.286Z,1013.72
2019-01-26T02:40:29.898Z,1013.72
2019-01-26T02:41:10.507Z,1013.72
2019-01-26T02:41:51.104Z,1013.76
2019-01-26T02:42:31.699Z,1013.81
2019-01-26T02:43:12.344Z,1013.82
2019-01-26T02:43:52.942Z,1013.79
2019-01-26T02:44:33.576Z,1013.85
2019-01-26T02:45:14.191Z,1013.84
2019-01-26T02:45:54.793Z,1013.89
2019-01-26T02:46:35.410Z,1013.85
2019-01-26T02:47:15.997Z,1013.87
2019-01-26T02:47:56.632Z,1013.9
2019-01-26T02:48:37.254Z,1013.92
2019-01-26T02:49:17.857Z,1013.89
2019-01-26T02:49:58.472Z,1013.9
2019-01-26T02:50:39.086Z,1013.88
2019-01-26T02:51:19.755Z,1013.93
2019-01-26T02:52:00.364Z,1013.94
2019-01-26T02:52:40.964Z,1013.86
2019-01-26T02:53:21.598Z,1013.88
2019-01-26T02:54:02.205Z,1013.86
2019-01-26T02:54:42.820Z,1013.89
2019-01-26T02:55:23.430Z,1013.93
2019-01-26T02:56:04.044Z,1013.91
2019-01-26T02:56:44.670Z,1013.93
2019-01-26T02:57:25.274Z,1013.92
2019-01-26T02:58:05.886Z,1013.95
2019-01-26T02:58:46.504Z,1013.94
2019-01-26T02:59:27.125Z,1013.97
2019-01-26T03:00:07.740Z,1013.95
2019-01-26T03:00:48.330Z,1013.96
2019-01-26T03:01:28.949Z,1013.95
2019-01-26T03:02:09.551Z,1013.95
2019-01-26T03:02:50.166Z,1013.92
2019-01-26T03:03:30.804Z,1013.96
2019-01-26T03:04:11.408Z,1013.94
2019-01-26T03:04:52.006Z,1013.96
2019-01-26T03:05:32.628Z,1013.91
2019-01-26T03:06:13.224Z,1013.9
2019-01-26T03:06:53.840Z,1013.89
2019-01-26T03:07:34.426Z,1013.92
2019-01-26T03:08:15.042Z,1013.93
2019-01-26T03:08:55.642Z,1013.94
2019-01-26T03:09:36.262Z,1013.86
2019-01-26T03:10:16.882Z,1013.83
2019-01-26T03:10:57.488Z,1013.87
2019-01-26T03:11:38.100Z,1013.86
2019-01-26T03:12:18.717Z,1013.83
2019-01-26T03:12:59.350Z,1013.87
2019-01-26T03:13:39.970Z,1013.84
2019-01-26T03:14:20.588Z,1013.84
2019-01-26T03:15:01.196Z,1013.87
2019-01-26T03:15:41.829Z,1013.86
2019-01-26T03:16:22.402Z,1013.9
2019-01-26T03:17:06.031Z,1013.87
2019-01-26T03:17:43.650Z,1013.83
2019-01-26T03:18:24.250Z,1013.83
2019-01-26T03:19:04.882Z,1013.8
2019-01-26T03:19:45.500Z,1013.85
2019-01-26T03:20:26.126Z,1013.84
2019-01-26T03:21:06.716Z,1013.85
2019-01-26T03:21:47.330Z,1013.85
2019-01-26T03:22:27.932Z,1013.87
2019-01-26T03:23:08.542Z,1013.82
2019-01-26T03:23:49.154Z,1013.88
2019-01-26T03:24:29.784Z,1013.89
2019-01-26T03:25:10.390Z,1013.9
2019-01-26T03:25:51.009Z,1013.92
2019-01-26T03:26:31.662Z,1013.88
2019-01-26T03:27:12.296Z,1013.89
2019-01-26T03:27:52.900Z,1013.89
2019-01-26T03:28:33.604Z,1013.97
2019-01-26T03:29:14.204Z,1013.97
2019-01-26T03:29:54.812Z,1013.93
2019-01-26T03:30:35.494Z,1013.94
2019-01-26T03:31:16.110Z,1013.89
2019-01-26T03:31:56.705Z,1013.98
2019-01-26T03:32:37.337Z,1014
2019-01-26T03:33:17.953Z,1014
2019-01-26T03:33:58.620Z,1013.99
2019-01-26T03:34:39.217Z,1013.93
2019-01-26T03:35:19.820Z,1013.94
2019-01-26T03:36:00.422Z,1013.98
2019-01-26T03:36:41.026Z,1013.95
2019-01-26T03:37:21.681Z,1013.94
2019-01-26T03:38:02.284Z,1013.96
2019-01-26T03:38:42.886Z,1013.97
2019-01-26T03:39:23.552Z,1013.96
2019-01-26T03:40:04.135Z,1013.96
2019-01-26T03:40:44.757Z,1013.89
2019-01-26T03:41:25.424Z,1013.94
2019-01-26T03:42:06.026Z,1013.94
2019-01-26T03:42:46.628Z,1013.91
2019-01-26T03:43:27.250Z,1013.95
2019-01-26T03:44:07.907Z,1013.9
2019-01-26T03:44:48.492Z,1013.94
2019-01-26T03:45:29.123Z,1013.96
2019-01-26T03:46:09.719Z,1013.95
2019-01-26T03:46:50.364Z,1013.99
2019-01-26T03:47:31.033Z,1013.98
2019-01-26T03:48:11.648Z,1014.02
2019-01-26T03:48:52.300Z,1014.01
2019-01-26T03:49:32.916Z,1014.02
2019-01-26T03:50:13.544Z,1014.05
2019-01-26T03:50:54.157Z,1014.05
2019-01-26T03:51:34.768Z,1014.05
2019-01-26T03:52:15.389Z,1014.09
2019-01-26T03:52:55.981Z,1014.1
2019-01-26T03:53:36.581Z,1014.13
2019-01-26T03:54:17.184Z,1014.11
2019-01-26T03:54:57.784Z,1014.12
2019-01-26T03:55:38.390Z,1014.15
2019-01-26T03:56:18.985Z,1014.11
2019-01-26T03:56:59.581Z,1014.14
2019-01-26T03:57:40.185Z,1014.13
2019-01-26T03:58:20.784Z,1014.12
2019-01-26T03:59:01.402Z,1014.15
2019-01-26T03:59:41.995Z,1014.11
2019-01-26T04:00:22.601Z,1014.05
2019-01-26T04:01:03.201Z,1014.11
2019-01-26T04:01:43.817Z,1014.09
2019-01-26T04:02:24.403Z,1014.08
2019-01-26T04:03:05.027Z,1014.08
2019-01-26T04:03:45.639Z,1014.01
2019-01-26T04:04:26.252Z,1014.03
2019-01-26T04:05:06.851Z,1014.04
2019-01-26T04:05:47.450Z,1014
2019-01-26T04:06:28.066Z,1014.03
2019-01-26T04:07:08.691Z,1014.04
2019-01-26T04:07:49.339Z,1013.98
2019-01-26T04:08:29.970Z,1014.02
2019-01-26T04:09:10.601Z,1013.96
2019-01-26T04:09:51.193Z,1014.04
2019-01-26T04:10:31.837Z,1014.05
2019-01-26T04:11:12.444Z,1014.05
2019-01-26T04:11:53.046Z,1014.07
2019-01-26T04:12:33.667Z,1014.06
2019-01-26T04:13:14.249Z,1014.07
2019-01-26T04:13:54.864Z,1014.1
2019-01-26T04:14:35.499Z,1014.06
2019-01-26T04:15:16.143Z,1014.12
2019-01-26T04:15:56.813Z,1014.13
2019-01-26T04:16:37.389Z,1014.13
2019-01-26T04:17:21.829Z,1014.15
2019-01-26T04:17:58.648Z,1014.1
2019-01-26T04:18:39.261Z,1014.13
2019-01-26T04:19:19.897Z,1014.15
2019-01-26T04:20:00.528Z,1014.17
2019-01-26T04:20:41.197Z,1014.18
2019-01-26T04:21:21.817Z,1014.19
2019-01-26T04:22:02.440Z,1014.16
2019-01-26T04:22:43.093Z,1014.21
2019-01-26T04:23:23.766Z,1014.22
2019-01-26T04:24:04.375Z,1014.18
2019-01-26T04:24:45.014Z,1014.15
2019-01-26T04:25:25.681Z,1014.18
2019-01-26T04:26:06.355Z,1014.15
2019-01-26T04:26:46.973Z,1014.16
2019-01-26T04:27:27.617Z,1014.19
2019-01-26T04:28:08.237Z,1014.15
2019-01-26T04:28:48.863Z,1014.18
2019-01-26T04:29:29.485Z,1014.16
2019-01-26T04:30:10.105Z,1014.16
2019-01-26T04:30:50.717Z,1014.16
2019-01-26T04:31:31.392Z,1014.14
2019-01-26T04:32:12.051Z,1014.22
2019-01-26T04:32:52.671Z,1014.18
2019-01-26T04:33:33.293Z,1014.16
2019-01-26T04:34:13.918Z,1014.19
2019-01-26T04:34:54.539Z,1014.18
2019-01-26T04:35:35.127Z,1014.21
2019-01-26T04:36:15.741Z,1014.21
2019-01-26T04:36:56.348Z,1014.23
2019-01-26T04:37:36.943Z,1014.22
2019-01-26T04:38:17.582Z,1014.23
2019-01-26T04:38:58.192Z,1014.25
2019-01-26T04:39:38.813Z,1014.2
2019-01-26T04:40:19.451Z,1014.24
2019-01-26T04:41:00.279Z,1014.23
2019-01-26T04:41:40.893Z,1014.28
2019-01-26T04:42:21.507Z,1014.25
2019-01-26T04:43:02.111Z,1014.28
2019-01-26T04:43:42.753Z,1014.21
2019-01-26T04:44:23.346Z,1014.26
2019-01-26T04:45:03.938Z,1014.24
2019-01-26T04:45:44.568Z,1014.26
2019-01-26T04:46:25.193Z,1014.36
2019-01-26T04:47:05.817Z,1014.31
2019-01-26T04:47:46.434Z,1014.35
2019-01-26T04:48:27.042Z,1014.37
2019-01-26T04:49:07.644Z,1014.36
2019-01-26T04:49:48.250Z,1014.36
2019-01-26T04:50:28.858Z,1014.41
2019-01-26T04:51:09.473Z,1014.37
2019-01-26T04:51:50.081Z,1014.34
2019-01-26T04:52:30.689Z,1014.34
2019-01-26T04:53:11.327Z,1014.32
2019-01-26T04:53:51.983Z,1014.35
2019-01-26T04:54:32.606Z,1014.27
2019-01-26T04:55:13.197Z,1014.3
2019-01-26T04:55:53.811Z,1014.27
2019-01-26T04:56:34.473Z,1014.32
2019-01-26T04:57:15.091Z,1014.29
2019-01-26T04:57:55.708Z,1014.31
2019-01-26T04:58:36.321Z,1014.3
2019-01-26T04:59:16.935Z,1014.33
2019-01-26T04:59:57.573Z,1014.31
2019-01-26T05:00:38.222Z,1014.35
2019-01-26T05:01:18.815Z,1014.39
2019-01-26T05:01:59.444Z,1014.39
2019-01-26T05:02:40.053Z,1014.38
2019-01-26T05:03:20.675Z,1014.39
2019-01-26T05:04:01.325Z,1014.39
2019-01-26T05:04:41.935Z,1014.41
2019-01-26T05:05:22.535Z,1014.43
2019-01-26T05:06:03.169Z,1014.43
2019-01-26T05:06:43.797Z,1014.4
2019-01-26T05:07:24.431Z,1014.4
2019-01-26T05:08:05.045Z,1014.41
2019-01-26T05:08:45.670Z,1014.39
2019-01-26T05:09:26.289Z,1014.39
2019-01-26T05:10:06.907Z,1014.33
2019-01-26T05:10:47.509Z,1014.37
2019-01-26T05:11:28.131Z,1014.32
2019-01-26T05:12:08.742Z,1014.39
2019-01-26T05:12:49.368Z,1014.37
2019-01-26T05:13:29.957Z,1014.36
2019-01-26T05:14:10.571Z,1014.37
2019-01-26T05:14:51.184Z,1014.43
2019-01-26T05:15:31.822Z,1014.36
2019-01-26T05:16:12.511Z,1014.38
2019-01-26T05:16:53.099Z,1014.36
2019-01-26T05:17:39.158Z,1014.38
2019-01-26T05:18:14.335Z,1014.36
2019-01-26T05:18:54.957Z,1014.39
2019-01-26T05:19:35.574Z,1014.4
2019-01-26T05:20:16.201Z,1014.41
2019-01-26T05:20:56.857Z,1014.39
2019-01-26T05:21:37.474Z,1014.41
2019-01-26T05:22:18.097Z,1014.43
2019-01-26T05:22:58.695Z,1014.44
2019-01-26T05:23:39.331Z,1014.42
2019-01-26T05:24:19.937Z,1014.36
2019-01-26T05:25:00.532Z,1014.35
2019-01-26T05:25:41.173Z,1014.37
2019-01-26T05:26:21.739Z,1014.36
2019-01-26T05:27:02.334Z,1014.32
2019-01-26T05:27:42.944Z,1014.33
2019-01-26T05:28:23.549Z,1014.31
2019-01-26T05:29:04.199Z,1014.35
2019-01-26T05:29:44.804Z,1014.34
2019-01-26T05:30:25.450Z,1014.33
2019-01-26T05:31:06.055Z,1014.37
2019-01-26T05:31:46.663Z,1014.35
2019-01-26T05:32:27.274Z,1014.37
2019-01-26T05:33:07.899Z,1014.37
2019-01-26T05:33:48.575Z,1014.41
2019-01-26T05:34:29.168Z,1014.4
2019-01-26T05:35:09.772Z,1014.4
2019-01-26T05:35:50.406Z,1014.41
2019-01-26T05:36:31.012Z,1014.43
2019-01-26T05:37:11.639Z,1014.44
2019-01-26T05:37:52.291Z,1014.44
2019-01-26T05:38:32.900Z,1014.46
2019-01-26T05:39:13.517Z,1014.46
2019-01-26T05:39:54.156Z,1014.45
2019-01-26T05:40:34.761Z,1014.46
2019-01-26T05:41:15.388Z,1014.48
2019-01-26T05:41:55.989Z,1014.49
2019-01-26T05:42:36.592Z,1014.49
2019-01-26T05:43:17.209Z,1014.55
2019-01-26T05:43:57.829Z,1014.53
2019-01-26T05:44:38.451Z,1014.53
2019-01-26T05:45:19.055Z,1014.51
2019-01-26T05:45:59.652Z,1014.54
2019-01-26T05:46:40.264Z,1014.57
2019-01-26T05:47:20.920Z,1014.54
2019-01-26T05:48:01.557Z,1014.57
2019-01-26T05:48:42.163Z,1014.54
2019-01-26T05:49:22.770Z,1014.58
2019-01-26T05:50:03.369Z,1014.54
2019-01-26T05:50:43.982Z,1014.57
2019-01-26T05:51:24.616Z,1014.58
2019-01-26T05:52:05.236Z,1014.55
2019-01-26T05:52:45.836Z,1014.56
2019-01-26T05:53:26.448Z,1014.54
2019-01-26T05:54:07.064Z,1014.56
2019-01-26T05:54:47.677Z,1014.54
2019-01-26T05:55:28.326Z,1014.54
2019-01-26T05:56:09.004Z,1014.54
2019-01-26T05:56:49.706Z,1014.6
2019-01-26T05:57:30.424Z,1014.57
2019-01-26T05:58:11.048Z,1014.58
2019-01-26T05:58:51.815Z,1014.55
2019-01-26T05:59:32.434Z,1014.56
2019-01-26T06:00:13.066Z,1014.56
2019-01-26T06:00:53.669Z,1014.56
2019-01-26T06:01:34.686Z,1014.58
2019-01-26T06:02:15.495Z,1014.54
2019-01-26T06:02:56.143Z,1014.54
2019-01-26T06:03:36.799Z,1014.6
2019-01-26T06:04:17.435Z,1014.56
2019-01-26T06:04:58.042Z,1014.53
2019-01-26T06:05:38.656Z,1014.55
2019-01-26T06:06:19.251Z,1014.5
2019-01-26T06:06:59.869Z,1014.52
2019-01-26T06:07:40.605Z,1014.51
2019-01-26T06:08:21.208Z,1014.5
2019-01-26T06:09:01.843Z,1014.51
2019-01-26T06:09:42.641Z,1014.54
2019-01-26T06:10:25.457Z,1014.54
2019-01-26T06:11:06.050Z,1014.54
2019-01-26T06:11:46.798Z,1014.53
2019-01-26T06:12:27.468Z,1014.53
2019-01-26T06:13:08.112Z,1014.62
2019-01-26T06:13:48.736Z,1014.6
2019-01-26T06:14:29.376Z,1014.63
2019-01-26T06:15:09.978Z,1014.6
2019-01-26T06:15:50.988Z,1014.63
2019-01-26T06:16:31.496Z,1014.67
2019-01-26T06:17:12.404Z,1014.66
2019-01-26T06:17:55.059Z,1014.67
2019-01-26T06:18:33.541Z,1014.73
2019-01-26T06:19:14.236Z,1014.73
2019-01-26T06:19:54.840Z,1014.71
2019-01-26T06:20:35.535Z,1014.77
2019-01-26T06:21:16.408Z,1014.72
2019-01-26T06:21:57.081Z,1014.72
2019-01-26T06:22:38.030Z,1014.71
2019-01-26T06:23:18.656Z,1014.71
2019-01-26T06:23:59.270Z,1014.69
2019-01-26T06:24:39.916Z,1014.67
2019-01-26T06:25:20.602Z,1014.71
2019-01-26T06:26:01.189Z,1014.67
2019-01-26T06:26:41.811Z,1014.68
2019-01-26T06:27:22.464Z,1014.68
2019-01-26T06:28:03.145Z,1014.68
2019-01-26T06:28:44.708Z,1014.68
2019-01-26T06:29:25.326Z,1014.69
2019-01-26T06:30:05.938Z,1014.68
2019-01-26T06:30:46.569Z,1014.69
2019-01-26T06:31:27.193Z,1014.72
2019-01-26T06:32:07.799Z,1014.74
2019-01-26T06:32:48.410Z,1014.72
2019-01-26T06:33:29.120Z,1014.76
2019-01-26T06:34:09.750Z,1014.73
2019-01-26T06:34:50.378Z,1014.75
2019-01-26T06:35:31.166Z,1014.79
2019-01-26T06:36:11.776Z,1014.78
2019-01-26T06:36:52.420Z,1014.77
2019-01-26T06:37:33.044Z,1014.74
2019-01-26T06:38:13.660Z,1014.71
2019-01-26T06:38:54.255Z,1014.72
2019-01-26T06:39:34.854Z,1014.69
2019-01-26T06:40:15.562Z,1014.7
2019-01-26T06:40:56.170Z,1014.69
2019-01-26T06:41:36.766Z,1014.69
2019-01-26T06:42:17.481Z,1014.67
2019-01-26T06:42:58.081Z,1014.68
2019-01-26T06:43:38.840Z,1014.72
2019-01-26T06:44:19.494Z,1014.71
2019-01-26T06:45:00.181Z,1014.76
2019-01-26T06:45:40.748Z,1014.72
2019-01-26T06:46:21.372Z,1014.74
2019-01-26T06:47:01.975Z,1014.76
2019-01-26T06:47:42.600Z,1014.72
2019-01-26T06:48:23.190Z,1014.72
2019-01-26T06:49:03.790Z,1014.68
2019-01-26T06:49:44.394Z,1014.73
2019-01-26T06:50:25.034Z,1014.67
2019-01-26T06:51:05.642Z,1014.66
2019-01-26T06:51:46.440Z,1014.71
2019-01-26T06:52:27.058Z,1014.72
2019-01-26T06:53:07.651Z,1014.7
2019-01-26T06:53:48.258Z,1014.72
2019-01-26T06:54:28.852Z,1014.72
2019-01-26T06:55:09.519Z,1014.74
2019-01-26T06:55:50.230Z,1014.74
2019-01-26T06:56:30.956Z,1014.74
2019-01-26T06:57:11.590Z,1014.79
2019-01-26T06:57:52.205Z,1014.82
2019-01-26T06:58:32.802Z,1014.81
2019-01-26T06:59:13.406Z,1014.84
2019-01-26T06:59:54.026Z,1014.81
2019-01-26T07:00:34.644Z,1014.87
2019-01-26T07:01:15.246Z,1014.87
2019-01-26T07:01:55.852Z,1014.86
2019-01-26T07:02:36.494Z,1014.89
2019-01-26T07:03:17.109Z,1014.86
2019-01-26T07:03:57.742Z,1014.89
2019-01-26T07:04:38.375Z,1014.93
2019-01-26T07:05:19.026Z,1014.9
2019-01-26T07:05:59.634Z,1014.92
2019-01-26T07:06:40.256Z,1014.92
2019-01-26T07:07:20.868Z,1014.9
2019-01-26T07:08:01.485Z,1014.84
2019-01-26T07:08:42.126Z,1014.84
2019-01-26T07:09:22.728Z,1014.82
2019-01-26T07:10:03.336Z,1014.81
2019-01-26T07:10:43.935Z,1014.78
2019-01-26T07:11:24.570Z,1014.8
2019-01-26T07:12:05.190Z,1014.83
2019-01-26T07:12:45.816Z,1014.81
2019-01-26T07:13:26.444Z,1014.85
2019-01-26T07:14:07.048Z,1014.84
2019-01-26T07:14:47.832Z,1014.83
2019-01-26T07:15:28.483Z,1014.87
2019-01-26T07:16:09.100Z,1014.92
2019-01-26T07:16:49.704Z,1014.91
2019-01-26T07:17:31.795Z,1014.94
2019-01-26T07:18:10.914Z,1014.97
2019-01-26T07:18:51.534Z,1015.01
2019-01-26T07:19:32.132Z,1014.99
2019-01-26T07:20:12.731Z,1014.99
2019-01-26T07:20:53.338Z,1014.98
2019-01-26T07:21:33.962Z,1015.01
2019-01-26T07:22:14.621Z,1015.03
2019-01-26T07:22:55.230Z,1015.03
2019-01-26T07:23:35.852Z,1015.05
2019-01-26T07:24:16.460Z,1015.04
2019-01-26T07:24:57.062Z,1015.09
2019-01-26T07:25:37.706Z,1015.05
2019-01-26T07:26:18.326Z,1015.06
2019-01-26T07:26:58.966Z,1015.08
2019-01-26T07:27:39.581Z,1015.06
2019-01-26T07:28:20.224Z,1015.09
2019-01-26T07:29:00.849Z,1015.1
2019-01-26T07:29:41.466Z,1015.13
2019-01-26T07:30:22.065Z,1015.11
2019-01-26T07:31:02.746Z,1015.16
2019-01-26T07:31:43.350Z,1015.14
2019-01-26T07:32:23.943Z,1015.17
2019-01-26T07:33:04.552Z,1015.21
2019-01-26T07:33:45.178Z,1015.18
2019-01-26T07:34:25.813Z,1015.18
2019-01-26T07:35:06.415Z,1015.22
2019-01-26T07:35:47.035Z,1015.26
2019-01-26T07:36:27.732Z,1015.28
2019-01-26T07:37:08.349Z,1015.29
2019-01-26T07:37:49.043Z,1015.24
2019-01-26T07:38:29.628Z,1015.28
2019-01-26T07:39:10.253Z,1015.29
2019-01-26T07:39:50.868Z,1015.28
2019-01-26T07:40:31.500Z,1015.27
2019-01-26T07:41:12.128Z,1015.3
2019-01-26T07:41:52.761Z,1015.31
2019-01-26T07:42:33.366Z,1015.28
2019-01-26T07:43:13.987Z,1015.31
2019-01-26T07:43:54.627Z,1015.33
2019-01-26T07:44:35.318Z,1015.35
2019-01-26T07:45:15.921Z,1015.37
2019-01-26T07:45:56.522Z,1015.36
2019-01-26T07:46:37.169Z,1015.4
2019-01-26T07:47:17.783Z,1015.38
2019-01-26T07:47:58.403Z,1015.4
2019-01-26T07:48:39.116Z,1015.38
2019-01-26T07:49:19.740Z,1015.4
2019-01-26T07:50:00.386Z,1015.4
2019-01-26T07:50:41.004Z,1015.38
2019-01-26T07:51:21.634Z,1015.4
2019-01-26T07:52:02.249Z,1015.4
2019-01-26T07:52:42.874Z,1015.38
2019-01-26T07:53:23.501Z,1015.36
2019-01-26T07:54:04.123Z,1015.39
2019-01-26T07:54:44.733Z,1015.36
2019-01-26T07:55:25.395Z,1015.42
2019-01-26T07:56:05.996Z,1015.38
2019-01-26T07:56:46.604Z,1015.38
2019-01-26T07:57:27.272Z,1015.39
2019-01-26T07:58:07.888Z,1015.36
2019-01-26T07:58:48.504Z,1015.39
2019-01-26T07:59:29.113Z,1015.33
2019-01-26T08:00:09.738Z,1015.33
2019-01-26T08:00:50.377Z,1015.36
2019-01-26T08:01:31.001Z,1015.33
2019-01-26T08:02:11.649Z,1015.32
2019-01-26T08:02:52.287Z,1015.31
2019-01-26T08:03:32.900Z,1015.34
2019-01-26T08:04:13.509Z,1015.33
2019-01-26T08:04:54.116Z,1015.3
2019-01-26T08:05:34.713Z,1015.33
2019-01-26T08:06:15.347Z,1015.28
2019-01-26T08:06:55.958Z,1015.33
2019-01-26T08:07:36.570Z,1015.36
2019-01-26T08:08:17.162Z,1015.33
2019-01-26T08:08:57.788Z,1015.33
2019-01-26T08:09:38.365Z,1015.35
2019-01-26T08:10:18.958Z,1015.37
2019-01-26T08:10:59.565Z,1015.4
2019-01-26T08:11:40.195Z,1015.4
2019-01-26T08:12:20.785Z,1015.44
2019-01-26T08:13:01.380Z,1015.43
2019-01-26T08:13:42.010Z,1015.4
2019-01-26T08:14:22.620Z,1015.43
2019-01-26T08:15:03.243Z,1015.44
2019-01-26T08:15:43.870Z,1015.45
2019-01-26T08:16:24.518Z,1015.48